createdAt,value
2018-09-01T00:02:06.215Z,10.47
2018-09-01T00:04:37.706Z,10.80
2018-09-01T00:07:09.490Z,11.23
2018-09-01T00:09:40.738Z,13.17
2018-09-01T00:12:12.362Z,10.07
2018-09-01T00:14:43.890Z,10.63
2018-09-01T00:17:19.448Z,10.37
2018-09-01T00:19:51.044Z,10.33
2018-09-01T00:22:22.716Z,9.58
2018-09-01T00:24:55.128Z,11.50
2018-09-01T00:27:26.732Z,10.50
2018-09-01T00:29:58.289Z,10.77
2018-09-01T00:32:29.801Z,9.60
2018-09-01T00:35:01.074Z,9.87
2018-09-01T00:37:37.876Z,9.60
2018-09-01T00:40:09.329Z,9.93
2018-09-01T00:42:40.633Z,10.10
2018-09-01T00:45:11.896Z,9.77
2018-09-01T00:47:43.632Z,9.13
2018-09-01T00:50:15.063Z,8.77
2018-09-01T00:52:46.765Z,9.30
2018-09-01T00:55:23.195Z,8.87
2018-09-01T00:57:54.962Z,9.63
2018-09-01T01:00:26.319Z,9.03
2018-09-01T01:02:57.760Z,7.60
2018-09-01T01:05:29.531Z,8.07
2018-09-01T01:08:00.769Z,9.47
2018-09-01T01:10:32.204Z,8.40
2018-09-01T01:13:03.487Z,9.33
2018-09-01T01:15:34.875Z,9.10
2018-09-01T01:18:06.401Z,8.03
2018-09-01T01:20:37.972Z,8.77
2018-09-01T01:23:09.249Z,8.50
2018-09-01T01:25:40.777Z,8.60
2018-09-01T01:28:12.370Z,8.00
2018-09-01T01:30:43.725Z,9.33
2018-09-01T01:33:15.151Z,8.83
2018-09-01T01:35:46.856Z,8.67
2018-09-01T01:38:18.311Z,8.90
2018-09-01T01:40:49.699Z,8.23
2018-09-01T01:43:21.064Z,8.60
2018-09-01T01:45:52.219Z,9.07
2018-09-01T01:48:23.644Z,8.30
2018-09-01T01:50:55.115Z,8.60
2018-09-01T01:53:26.547Z,8.00
2018-09-01T01:55:57.914Z,9.17
2018-09-01T01:58:29.667Z,8.57
2018-09-01T02:01:01.119Z,8.90
2018-09-01T02:03:32.473Z,8.93
2018-09-01T02:06:03.534Z,9.00
2018-09-01T02:08:34.884Z,9.63
2018-09-01T02:11:06.313Z,9.07
2018-09-01T02:13:37.812Z,9.33
2018-09-01T02:16:09.369Z,9.33
2018-09-01T02:18:40.900Z,8.77
2018-09-01T02:21:12.523Z,9.30
2018-09-01T02:23:44.559Z,9.23
2018-09-01T02:26:16.137Z,9.40
2018-09-01T02:28:47.468Z,9.23
2018-09-01T02:31:18.733Z,8.83
2018-09-01T02:33:50.439Z,9.80
2018-09-01T02:36:21.837Z,11.73
2018-09-01T02:38:53.358Z,9.93
2018-09-01T02:41:24.623Z,10.03
2018-09-01T02:43:56.364Z,10.67
2018-09-01T02:46:27.545Z,9.67
2018-09-01T02:48:59.115Z,11.13
2018-09-01T02:51:30.681Z,11.78
2018-09-01T02:54:02.015Z,11.00
2018-09-01T02:56:33.409Z,10.07
2018-09-01T02:59:04.711Z,10.47
2018-09-01T03:01:36.697Z,10.00
2018-09-01T03:04:08.546Z,11.43
2018-09-01T03:06:56.291Z,11.47
2018-09-01T03:09:28.021Z,12.03
2018-09-01T03:12:00.068Z,10.73
2018-09-01T03:14:31.434Z,11.73
2018-09-01T03:17:02.902Z,10.97
2018-09-01T03:19:34.219Z,11.80
2018-09-01T03:22:05.836Z,12.37
2018-09-01T03:24:37.300Z,12.65
2018-09-01T03:27:08.552Z,10.87
2018-09-01T03:29:40.107Z,12.00
2018-09-01T03:32:11.344Z,11.03
2018-09-01T03:34:42.900Z,10.80
2018-09-01T03:37:14.347Z,11.63
2018-09-01T03:39:45.504Z,11.83
2018-09-01T03:42:17.099Z,11.07
2018-09-01T03:44:48.546Z,15.47
2018-09-01T03:47:20.062Z,12.67
2018-09-01T03:49:51.320Z,11.00
2018-09-01T03:52:22.743Z,12.70
2018-09-01T03:54:54.151Z,10.90
2018-09-01T03:57:25.485Z,9.83
2018-09-01T03:59:57.601Z,11.00
2018-09-01T04:02:29.371Z,10.80
2018-09-01T04:05:00.732Z,10.43
2018-09-01T04:07:32.033Z,12.30
2018-09-01T04:10:03.331Z,12.40
2018-09-01T04:12:34.807Z,12.63
2018-09-01T04:15:07.975Z,11.60
2018-09-01T04:17:39.399Z,11.00
2018-09-01T04:20:10.992Z,12.07
2018-09-01T04:22:43.947Z,11.33
2018-09-01T04:25:15.145Z,11.70
2018-09-01T04:27:46.768Z,11.77
2018-09-01T04:30:18.295Z,12.53
2018-09-01T04:32:49.761Z,11.73
2018-09-01T04:35:21.325Z,12.33
2018-09-01T04:37:53.082Z,12.73
2018-09-01T04:40:25.089Z,12.73
2018-09-01T04:42:56.687Z,14.83
2018-09-01T04:45:28.313Z,15.40
2018-09-01T04:47:59.660Z,14.47
2018-09-01T04:50:32.011Z,13.00
2018-09-01T04:53:03.432Z,13.40
2018-09-01T04:55:34.964Z,12.55
2018-09-01T04:58:06.469Z,12.73
2018-09-01T05:00:38.047Z,15.53
2018-09-01T05:03:09.700Z,13.10
2018-09-01T05:05:41.694Z,12.77
2018-09-01T05:08:13.172Z,14.27
2018-09-01T05:10:44.673Z,14.77
2018-09-01T05:13:16.208Z,12.83
2018-09-01T05:15:47.591Z,11.63
2018-09-01T05:18:19.125Z,12.97
2018-09-01T05:20:50.477Z,13.80
2018-09-01T05:23:22.042Z,12.83
2018-09-01T05:25:53.228Z,13.78
2018-09-01T05:28:24.810Z,13.07
2018-09-01T05:30:56.479Z,13.22
2018-09-01T05:33:27.833Z,14.10
2018-09-01T05:35:59.448Z,13.65
2018-09-01T05:38:31.074Z,13.78
2018-09-01T05:41:02.493Z,12.83
2018-09-01T05:43:34.292Z,12.90
2018-09-01T05:46:05.926Z,14.50
2018-09-01T05:48:37.576Z,13.70
2018-09-01T05:51:08.974Z,16.23
2018-09-01T05:53:40.507Z,13.43
2018-09-01T05:56:12.364Z,14.03
2018-09-01T05:58:43.768Z,13.83
2018-09-01T06:01:15.457Z,16.77
2018-09-01T06:03:47.044Z,14.70
2018-09-01T06:06:18.386Z,17.17
2018-09-01T06:08:49.580Z,12.97
2018-09-01T06:11:21.073Z,15.25
2018-09-01T06:13:52.497Z,15.23
2018-09-01T06:16:23.793Z,14.38
2018-09-01T06:18:55.967Z,47.93
2018-09-01T06:21:27.366Z,16.90
2018-09-01T06:23:59.008Z,20.17
2018-09-01T06:26:30.571Z,15.80
2018-09-01T06:29:11.046Z,15.80
2018-09-01T06:31:46.285Z,15.78
2018-09-01T06:34:17.939Z,14.30
2018-09-01T06:36:49.516Z,14.90
2018-09-01T06:39:20.924Z,15.60
2018-09-01T06:41:52.753Z,13.15
2018-09-01T06:44:24.300Z,17.15
2018-09-01T06:46:55.586Z,14.45
2018-09-01T06:49:27.776Z,15.03
2018-09-01T06:51:59.097Z,15.28
2018-09-01T06:54:30.684Z,61.63
2018-09-01T06:57:02.116Z,15.48
2018-09-01T06:59:33.673Z,16.60
2018-09-01T07:02:05.213Z,15.98
2018-09-01T07:04:36.476Z,15.38
2018-09-01T07:07:07.735Z,15.98
2018-09-01T07:09:39.187Z,16.40
2018-09-01T07:12:10.765Z,20.47
2018-09-01T07:14:42.510Z,20.77
2018-09-01T07:17:13.789Z,23.10
2018-09-01T07:19:45.324Z,25.67
2018-09-01T07:22:17.134Z,23.73
2018-09-01T07:24:48.588Z,23.40
2018-09-01T07:27:20.029Z,22.23
2018-09-01T07:29:51.257Z,21.70
2018-09-01T07:32:22.963Z,22.57
2018-09-01T07:34:54.649Z,21.97
2018-09-01T07:37:26.510Z,18.77
2018-09-01T07:39:57.976Z,20.10
2018-09-01T07:42:29.488Z,21.87
2018-09-01T07:45:00.965Z,21.10
2018-09-01T07:47:32.336Z,18.60
2018-09-01T07:50:03.890Z,14.47
2018-09-01T07:52:35.412Z,14.40
2018-09-01T07:55:07.135Z,15.27
2018-09-01T07:57:38.547Z,14.20
2018-09-01T08:00:10.255Z,13.07
2018-09-01T08:02:41.766Z,13.70
2018-09-01T08:05:13.300Z,16.83
2018-09-01T08:07:45.041Z,20.83
2018-09-01T08:10:16.323Z,13.37
2018-09-01T08:12:47.772Z,13.37
2018-09-01T08:15:19.149Z,14.47
2018-09-01T08:17:50.265Z,11.80
2018-09-01T08:20:21.758Z,11.70
2018-09-01T08:22:53.377Z,11.57
2018-09-01T08:25:26.035Z,12.27
2018-09-01T08:27:58.438Z,10.50
2018-09-01T08:30:30.068Z,11.80
2018-09-01T08:33:01.496Z,11.53
2018-09-01T08:35:32.883Z,12.03
2018-09-01T08:38:04.428Z,10.63
2018-09-01T08:40:36.002Z,13.80
2018-09-01T08:43:08.253Z,13.20
2018-09-01T08:45:39.867Z,16.70
2018-09-01T08:48:11.172Z,15.43
2018-09-01T08:50:42.603Z,15.30
2018-09-01T08:53:14.249Z,10.67
2018-09-01T08:55:45.945Z,11.23
2018-09-01T08:58:18.067Z,11.43
2018-09-01T09:00:49.411Z,12.67
2018-09-01T09:03:21.412Z,12.70
2018-09-01T09:05:53.068Z,35.33
2018-09-01T09:08:25.499Z,60.40
2018-09-01T09:10:57.096Z,20.77
2018-09-01T09:13:29.701Z,14.63
2018-09-01T09:16:01.608Z,12.55
2018-09-01T09:18:33.107Z,15.17
2018-09-01T09:21:04.617Z,15.07
2018-09-01T09:23:36.108Z,15.58
2018-09-01T09:26:07.760Z,12.43
2018-09-01T09:28:39.747Z,13.47
2018-09-01T09:31:11.444Z,14.37
2018-09-01T09:33:43.126Z,14.97
2018-09-01T09:36:14.554Z,15.47
2018-09-01T09:38:45.619Z,16.87
2018-09-01T09:41:16.969Z,19.20
2018-09-01T09:43:48.355Z,17.40
2018-09-01T09:46:20.043Z,20.73
2018-09-01T09:48:51.890Z,18.63
2018-09-01T09:51:23.344Z,20.97
2018-09-01T09:53:55.614Z,21.07
2018-09-01T09:56:27.278Z,19.73
2018-09-01T09:58:58.917Z,18.27
2018-09-01T10:01:37.877Z,20.60
2018-09-01T10:04:10.256Z,17.20
2018-09-01T10:06:41.899Z,17.87
2018-09-01T10:09:15.334Z,17.53
2018-09-01T10:11:46.900Z,18.50
2018-09-01T10:14:18.451Z,18.12
2018-09-01T10:16:50.464Z,19.30
2018-09-01T10:19:22.420Z,18.60
2018-09-01T10:21:54.425Z,21.87
2018-09-01T10:24:26.599Z,19.02
2018-09-01T10:26:57.868Z,17.12
2018-09-01T10:29:29.837Z,18.85
2018-09-01T10:32:01.746Z,16.30
2018-09-01T10:34:33.379Z,17.20
2018-09-01T10:37:04.785Z,17.02
2018-09-01T10:39:35.943Z,15.60
2018-09-01T10:42:07.446Z,15.88
2018-09-01T10:44:38.908Z,16.27
2018-09-01T10:47:10.349Z,16.77
2018-09-01T10:49:41.887Z,15.75
2018-09-01T10:52:13.648Z,16.25
2018-09-01T10:54:45.305Z,16.35
2018-09-01T10:57:16.906Z,15.53
2018-09-01T10:59:48.278Z,17.12
2018-09-01T11:02:20.084Z,15.32
2018-09-01T11:04:51.644Z,14.20
2018-09-01T11:07:23.029Z,15.28
2018-09-01T11:09:54.400Z,14.28
2018-09-01T11:12:25.937Z,14.75
2018-09-01T11:14:57.539Z,16.25
2018-09-01T11:17:28.890Z,16.02
2018-09-01T11:20:01.182Z,16.45
2018-09-01T11:22:32.796Z,16.10
2018-09-01T11:25:04.415Z,15.20
2018-09-01T11:27:36.018Z,15.35
2018-09-01T11:30:09.232Z,15.03
2018-09-01T11:32:40.906Z,15.72
2018-09-01T11:35:12.411Z,15.30
2018-09-01T11:37:43.916Z,15.30
2018-09-01T11:40:15.331Z,16.17
2018-09-01T11:42:46.968Z,15.38
2018-09-01T11:45:18.063Z,16.30
2018-09-01T11:47:49.759Z,15.13
2018-09-01T11:50:21.172Z,14.28
2018-09-01T11:52:52.621Z,13.50
2018-09-01T11:55:24.381Z,14.00
2018-09-01T11:57:55.688Z,13.72
2018-09-01T12:00:27.308Z,14.30
2018-09-01T12:02:58.792Z,14.83
2018-09-01T12:05:30.298Z,15.15
2018-09-01T12:08:01.759Z,14.78
2018-09-01T12:10:35.053Z,13.72
2018-09-01T12:13:06.517Z,17.82
2018-09-01T12:15:38.726Z,14.63
2018-09-01T12:18:11.139Z,14.75
2018-09-01T12:20:42.969Z,15.38
2018-09-01T12:23:15.129Z,15.60
2018-09-01T12:25:46.588Z,15.75
2018-09-01T12:28:18.274Z,15.75
2018-09-01T12:30:49.417Z,15.32
2018-09-01T12:33:21.053Z,15.30
2018-09-01T12:35:52.696Z,14.33
2018-09-01T12:38:24.318Z,15.23
2018-09-01T12:40:55.862Z,14.63
2018-09-01T12:43:27.333Z,15.72
2018-09-01T12:45:59.386Z,21.70
2018-09-01T12:48:30.795Z,18.12
2018-09-01T12:51:02.283Z,16.87
2018-09-01T12:53:33.983Z,14.83
2018-09-01T12:56:05.582Z,16.55
2018-09-01T12:58:37.002Z,15.70
2018-09-01T13:01:09.025Z,27.95
2018-09-01T13:03:40.446Z,17.50
2018-09-01T13:06:12.521Z,15.13
2018-09-01T13:08:44.142Z,33.85
2018-09-01T13:11:16.058Z,31.17
2018-09-01T13:13:47.363Z,25.65
2018-09-01T13:16:18.959Z,34.48
2018-09-01T13:18:50.869Z,21.50
2018-09-01T13:21:22.465Z,28.57
2018-09-01T13:23:54.133Z,37.73
2018-09-01T13:26:25.659Z,25.62
2018-09-01T13:28:57.210Z,21.10
2018-09-01T13:31:28.824Z,20.47
2018-09-01T13:34:00.646Z,18.90
2018-09-01T13:36:32.413Z,18.83
2018-09-01T13:39:04.139Z,20.27
2018-09-01T13:41:35.557Z,19.87
2018-09-01T13:44:07.136Z,22.27
2018-09-01T13:46:38.651Z,21.73
2018-09-01T13:49:10.035Z,18.13
2018-09-01T13:51:41.623Z,19.77
2018-09-01T13:54:13.421Z,19.80
2018-09-01T13:56:44.892Z,21.93
2018-09-01T13:59:16.793Z,20.83
2018-09-01T14:01:48.227Z,21.73
2018-09-01T14:04:19.877Z,19.90
2018-09-01T14:06:51.499Z,18.10
2018-09-01T14:09:22.805Z,20.07
2018-09-01T14:11:54.356Z,19.70
2018-09-01T14:14:26.187Z,17.80
2018-09-01T14:16:57.717Z,17.23
2018-09-01T14:19:29.084Z,15.70
2018-09-01T14:22:00.482Z,16.17
2018-09-01T14:24:32.101Z,15.97
2018-09-01T14:27:03.445Z,16.63
2018-09-01T14:29:35.760Z,15.87
2018-09-01T14:32:07.503Z,13.13
2018-09-01T14:34:38.991Z,12.67
2018-09-01T14:37:10.535Z,11.07
2018-09-01T14:39:41.774Z,10.50
2018-09-01T14:42:13.229Z,11.73
2018-09-01T14:44:44.754Z,10.00
2018-09-01T14:47:16.152Z,10.27
2018-09-01T14:49:47.624Z,9.30
2018-09-01T14:52:19.173Z,9.50
2018-09-01T14:54:50.778Z,8.10
2018-09-01T14:57:22.175Z,8.53
2018-09-01T14:59:53.738Z,8.47
2018-09-01T15:02:25.432Z,8.70
2018-09-01T15:04:56.791Z,9.03
2018-09-01T15:07:28.416Z,7.87
2018-09-01T15:10:00.050Z,7.97
2018-09-01T15:12:31.347Z,8.37
2018-09-01T15:15:02.670Z,8.20
2018-09-01T15:17:34.197Z,9.10
2018-09-01T15:20:06.026Z,8.97
2018-09-01T15:22:37.536Z,17.80
2018-09-01T15:25:08.881Z,19.73
2018-09-01T15:27:40.377Z,11.63
2018-09-01T15:30:11.924Z,12.50
2018-09-01T15:32:43.511Z,15.83
2018-09-01T15:35:15.151Z,17.73
2018-09-01T15:37:46.677Z,15.33
2018-09-01T15:40:18.460Z,11.67
2018-09-01T15:42:50.106Z,8.67
2018-09-01T15:45:21.335Z,15.57
2018-09-01T15:47:52.639Z,10.23
2018-09-01T15:50:24.262Z,18.37
2018-09-01T15:52:56.437Z,18.30
2018-09-01T15:55:27.895Z,9.33
2018-09-01T15:57:59.835Z,13.37
2018-09-01T16:00:31.394Z,7.83
2018-09-01T16:03:03.160Z,5.33
2018-09-01T16:05:34.525Z,4.90
2018-09-01T16:08:06.241Z,3.20
2018-09-01T16:10:37.824Z,3.47
2018-09-01T16:13:09.659Z,2.40
2018-09-01T16:15:41.140Z,2.40
2018-09-01T16:18:12.687Z,2.60
2018-09-01T16:20:44.158Z,3.13
2018-09-01T16:23:15.679Z,3.07
2018-09-01T16:25:48.300Z,3.00
2018-09-01T16:28:19.927Z,3.37
2018-09-01T16:30:51.593Z,6.70
2018-09-01T16:33:23.051Z,8.20
2018-09-01T16:35:54.856Z,4.60
2018-09-01T16:38:26.513Z,4.40
2018-09-01T16:40:58.126Z,4.30
2018-09-01T16:43:29.653Z,2.90
2018-09-01T16:46:01.063Z,2.90
2018-09-01T16:48:33.167Z,3.63
2018-09-01T16:51:04.648Z,6.50
2018-09-01T16:53:36.201Z,6.10
2018-09-01T16:56:08.162Z,6.20
2018-09-01T16:58:39.584Z,6.17
2018-09-01T17:01:11.165Z,4.67
2018-09-01T17:03:42.707Z,5.33
2018-09-01T17:06:14.216Z,4.93
2018-09-01T17:08:45.638Z,5.93
2018-09-01T17:11:17.272Z,5.93
2018-09-01T17:13:48.643Z,6.27
2018-09-01T17:16:20.385Z,5.80
2018-09-01T17:18:51.699Z,5.80
2018-09-01T17:21:23.140Z,5.30
2018-09-01T17:23:54.544Z,5.90
2018-09-01T17:26:27.636Z,5.00
2018-09-01T17:28:59.139Z,5.43
2018-09-01T17:31:30.909Z,40.50
2018-09-01T17:34:02.316Z,40.13
2018-09-01T17:36:33.602Z,11.80
2018-09-01T17:39:06.482Z,25.37
2018-09-01T17:41:38.086Z,30.07
2018-09-01T17:44:10.095Z,13.63
2018-09-01T17:46:41.659Z,10.07
2018-09-01T17:49:13.252Z,18.40
2018-09-01T17:51:44.863Z,5.50
2018-09-01T17:54:18.129Z,7.87
2018-09-01T17:56:50.234Z,8.80
2018-09-01T17:59:23.550Z,7.27
2018-09-01T18:01:56.441Z,6.63
2018-09-01T18:04:29.321Z,6.87
2018-09-01T18:07:00.968Z,6.27
2018-09-01T18:09:34.303Z,18.87
2018-09-01T18:12:05.672Z,7.40
2018-09-01T18:14:37.109Z,7.70
2018-09-01T18:17:09.814Z,6.53
2018-09-01T18:19:41.722Z,7.47
2018-09-01T18:22:13.041Z,9.43
2018-09-01T18:24:44.636Z,7.13
2018-09-01T18:27:16.314Z,9.87
2018-09-01T18:29:48.154Z,9.60
2018-09-01T18:32:19.792Z,7.13
2018-09-01T18:34:51.105Z,6.47
2018-09-01T18:37:23.278Z,7.37
2018-09-01T18:39:54.642Z,7.03
2018-09-01T18:42:27.104Z,6.30
2018-09-01T18:44:58.601Z,7.10
2018-09-01T18:47:30.478Z,7.63
2018-09-01T18:50:02.332Z,7.93
2018-09-01T18:52:34.123Z,7.83
2018-09-01T18:55:05.763Z,10.63
2018-09-01T18:57:37.088Z,13.30
2018-09-01T19:00:09.409Z,11.57
2018-09-01T19:02:41.943Z,11.30
2018-09-01T19:05:13.894Z,14.33
2018-09-01T19:07:45.435Z,13.73
2018-09-01T19:10:17.662Z,13.67
2018-09-01T19:12:49.391Z,17.33
2018-09-01T19:15:21.022Z,14.77
2018-09-01T19:17:56.595Z,13.33
2018-09-01T19:20:29.072Z,11.07
2018-09-01T19:23:01.137Z,9.40
2018-09-01T19:25:33.587Z,9.30
2018-09-01T19:28:05.359Z,9.00
2018-09-01T19:30:37.335Z,11.40
2018-09-01T19:33:08.966Z,29.57
2018-09-01T19:35:40.860Z,48.10
2018-09-01T19:38:12.537Z,36.43
2018-09-01T19:40:44.234Z,25.10
2018-09-01T19:43:15.560Z,36.43
2018-09-01T19:45:46.904Z,67.90
2018-09-01T19:48:18.389Z,58.30
2018-09-01T19:50:50.203Z,39.30
2018-09-01T19:53:21.947Z,21.87
2018-09-01T19:55:53.441Z,27.83
2018-09-01T19:58:26.270Z,25.17
2018-09-01T20:00:58.461Z,17.17
2018-09-01T20:03:30.218Z,22.20
2018-09-01T20:06:02.285Z,47.80
2018-09-01T20:08:33.566Z,32.67
2018-09-01T20:11:05.085Z,21.80
2018-09-01T20:13:37.018Z,53.37
2018-09-01T20:16:08.686Z,30.67
2018-09-01T20:18:40.098Z,27.57
2018-09-01T20:21:11.789Z,22.60
2018-09-01T20:23:43.559Z,88.90
2018-09-01T20:26:15.619Z,36.87
2018-09-01T20:28:47.274Z,19.27
2018-09-01T20:31:18.952Z,17.83
2018-09-01T20:33:50.555Z,22.67
2018-09-01T20:36:23.121Z,18.83
2018-09-01T20:38:54.919Z,21.80
2018-09-01T20:41:26.472Z,19.00
2018-09-01T20:43:58.058Z,16.80
2018-09-01T20:46:29.730Z,14.63
2018-09-01T20:49:01.357Z,14.90
2018-09-01T20:51:32.936Z,18.30
2018-09-01T20:54:04.667Z,16.83
2018-09-01T20:56:36.789Z,13.53
2018-09-01T20:59:08.399Z,9.43
2018-09-01T21:01:39.933Z,7.60
2018-09-01T21:04:11.429Z,12.67
2018-09-01T21:06:42.816Z,8.47
2018-09-01T21:09:14.782Z,8.97
2018-09-01T21:11:46.339Z,12.10
2018-09-01T21:14:17.744Z,6.60
2018-09-01T21:16:49.270Z,6.50
2018-09-01T21:19:20.870Z,6.83
2018-09-01T21:21:52.450Z,7.53
2018-09-01T21:24:23.825Z,6.20
2018-09-01T21:26:55.144Z,7.27
2018-09-01T21:29:26.644Z,7.20
2018-09-01T21:31:58.236Z,10.03
2018-09-01T21:34:30.513Z,13.93
2018-09-01T21:37:01.967Z,9.17
2018-09-01T21:39:33.558Z,11.87
2018-09-01T21:42:05.115Z,10.80
2018-09-01T21:44:36.338Z,9.83
2018-09-01T21:47:07.811Z,9.30
2018-09-01T21:49:39.396Z,8.93
2018-09-01T21:52:11.117Z,8.70
2018-09-01T21:54:42.681Z,9.33
2018-09-01T21:57:13.956Z,10.17
2018-09-01T21:59:45.518Z,11.03
2018-09-01T22:02:23.105Z,10.43
2018-09-01T22:04:59.777Z,11.10
2018-09-01T22:07:31.358Z,10.47
2018-09-01T22:10:03.287Z,9.70
2018-09-01T22:12:34.453Z,9.27
2018-09-01T22:15:05.905Z,8.90
2018-09-01T22:17:37.424Z,9.40
2018-09-01T22:20:08.679Z,9.80
2018-09-01T22:22:40.223Z,8.63
2018-09-01T22:25:11.667Z,8.73
2018-09-01T22:27:43.173Z,9.87
2018-09-01T22:30:14.623Z,8.93
2018-09-01T22:32:46.337Z,9.17
2018-09-01T22:35:17.672Z,8.90
2018-09-01T22:37:49.211Z,9.70
2018-09-01T22:40:20.596Z,9.17
2018-09-01T22:42:51.951Z,11.00
2018-09-01T22:45:23.462Z,8.77
2018-09-01T22:47:54.889Z,9.97
2018-09-01T22:50:26.386Z,9.73
2018-09-01T22:52:58.034Z,9.03
2018-09-01T22:55:29.412Z,10.07
2018-09-01T22:58:00.943Z,8.27
2018-09-01T23:00:32.480Z,8.27
2018-09-01T23:03:03.837Z,8.53
2018-09-01T23:05:35.322Z,8.93
2018-09-01T23:08:07.017Z,10.13
2018-09-01T23:10:38.549Z,11.17
2018-09-01T23:13:10.026Z,11.03
2018-09-01T23:15:41.649Z,9.60
2018-09-01T23:18:13.173Z,12.30
2018-09-01T23:20:44.828Z,9.90
2018-09-01T23:23:16.263Z,11.90
2018-09-01T23:25:47.835Z,9.00
2018-09-01T23:28:19.318Z,9.20
2018-09-01T23:30:50.634Z,9.47
2018-09-01T23:33:22.447Z,8.47
2018-09-01T23:35:53.753Z,10.83
2018-09-01T23:38:25.309Z,8.17
2018-09-01T23:40:56.916Z,8.17
2018-09-01T23:43:28.662Z,6.57
2018-09-01T23:46:00.098Z,7.57
2018-09-01T23:48:31.767Z,7.07
2018-09-01T23:51:03.537Z,7.13
2018-09-01T23:53:34.989Z,6.80
2018-09-01T23:56:06.324Z,7.07
2018-09-01T23:58:38.100Z,7.60
